Kalamazoo METAR

KAZO 020753Z AUTO 19006KT 10SM BKN065 OVC080 18/08 A2997 RMK AO2 SLP145 T01780083

Kalamazoo TAF

TAF KAZO 020549Z 0206/0306 19009KT P6SM BKN060 WS020/24040KT FM021200 25012G20KT P6SM SCT030 FM030400 26010KT P6SM VCTS SCT040CB